sensor_id;sensor_type;location;lat;lon;timestamp;P1;durP1;ratioP1;P2;durP2;ratioP2
8574;SDS011;4325;42.520;27.448;2023-09-30T00:01:31;19.03;;;5.63;;
8574;SDS011;4325;42.520;27.448;2023-09-30T00:03:58;7.03;;;5.40;;
8574;SDS011;4325;42.520;27.448;2023-09-30T00:06:27;8.20;;;5.03;;
8574;SDS011;4325;42.520;27.448;2023-09-30T00:08:54;9.10;;;5.40;;
8574;SDS011;4325;42.520;27.448;2023-09-30T00:11:21;8.37;;;4.87;;
8574;SDS011;4325;42.520;27.448;2023-09-30T00:13:49;8.23;;;5.40;;
8574;SDS011;4325;42.520;27.448;2023-09-30T00:16:17;10.70;;;4.63;;
8574;SDS011;4325;42.520;27.448;2023-09-30T00:18:44;8.13;;;5.37;;
8574;SDS011;4325;42.520;27.448;2023-09-30T00:21:11;7.90;;;4.87;;
8574;SDS011;4325;42.520;27.448;2023-09-30T00:23:38;8.53;;;4.70;;
8574;SDS011;4325;42.520;27.448;2023-09-30T00:26:05;7.80;;;4.80;;
8574;SDS011;4325;42.520;27.448;2023-09-30T00:28:32;14.10;;;4.10;;
8574;SDS011;4325;42.520;27.448;2023-09-30T00:31:01;10.13;;;4.87;;
8574;SDS011;4325;42.520;27.448;2023-09-30T00:33:34;11.70;;;5.00;;
8574;SDS011;4325;42.520;27.448;2023-09-30T00:36:05;12.47;;;5.23;;
8574;SDS011;4325;42.520;27.448;2023-09-30T00:38:32;9.23;;;4.60;;
8574;SDS011;4325;42.520;27.448;2023-09-30T00:40:59;7.13;;;5.30;;
8574;SDS011;4325;42.520;27.448;2023-09-30T00:43:26;8.67;;;5.33;;
8574;SDS011;4325;42.520;27.448;2023-09-30T00:45:56;8.97;;;4.20;;
8574;SDS011;4325;42.520;27.448;2023-09-30T00:48:32;7.30;;;4.43;;
8574;SDS011;4325;42.520;27.448;2023-09-30T00:51:00;7.23;;;4.77;;
8574;SDS011;4325;42.520;27.448;2023-09-30T00:53:27;14.83;;;4.77;;
8574;SDS011;4325;42.520;27.448;2023-09-30T00:55:55;8.30;;;4.77;;
8574;SDS011;4325;42.520;27.448;2023-09-30T00:58:23;6.93;;;5.00;;
8574;SDS011;4325;42.520;27.448;2023-09-30T01:00:56;11.00;;;4.80;;
8574;SDS011;4325;42.520;27.448;2023-09-30T01:03:24;13.00;;;5.37;;
8574;SDS011;4325;42.520;27.448;2023-09-30T01:05:51;6.90;;;5.03;;
8574;SDS011;4325;42.520;27.448;2023-09-30T01:08:19;6.63;;;4.53;;
8574;SDS011;4325;42.520;27.448;2023-09-30T01:10:46;6.90;;;5.20;;
8574;SDS011;4325;42.520;27.448;2023-09-30T01:13:14;10.67;;;5.20;;
8574;SDS011;4325;42.520;27.448;2023-09-30T01:15:41;13.03;;;5.00;;
8574;SDS011;4325;42.520;27.448;2023-09-30T01:18:07;9.37;;;5.73;;
8574;SDS011;4325;42.520;27.448;2023-09-30T01:20:36;8.20;;;5.80;;
8574;SDS011;4325;42.520;27.448;2023-09-30T01:23:05;8.40;;;6.57;;
8574;SDS011;4325;42.520;27.448;2023-09-30T01:25:32;8.50;;;5.37;;
8574;SDS011;4325;42.520;27.448;2023-09-30T01:28:07;13.27;;;5.50;;
8574;SDS011;4325;42.520;27.448;2023-09-30T01:30:35;6.83;;;5.50;;
8574;SDS011;4325;42.520;27.448;2023-09-30T01:33:02;8.23;;;5.37;;
8574;SDS011;4325;42.520;27.448;2023-09-30T01:35:32;9.07;;;5.33;;
8574;SDS011;4325;42.520;27.448;2023-09-30T01:37:59;11.10;;;5.60;;
8574;SDS011;4325;42.520;27.448;2023-09-30T01:40:28;9.53;;;5.63;;
8574;SDS011;4325;42.520;27.448;2023-09-30T01:42:55;15.10;;;6.07;;
8574;SDS011;4325;42.520;27.448;2023-09-30T01:45:23;12.57;;;5.57;;
8574;SDS011;4325;42.520;27.448;2023-09-30T01:47:49;7.30;;;5.90;;
8574;SDS011;4325;42.520;27.448;2023-09-30T01:50:16;7.83;;;5.30;;
8574;SDS011;4325;42.520;27.448;2023-09-30T01:52:43;9.87;;;4.67;;
8574;SDS011;4325;42.520;27.448;2023-09-30T01:55:10;13.40;;;5.20;;
8574;SDS011;4325;42.520;27.448;2023-09-30T01:57:39;9.87;;;5.47;;
8574;SDS011;4325;42.520;27.448;2023-09-30T02:00:06;17.03;;;5.33;;
8574;SDS011;4325;42.520;27.448;2023-09-30T02:02:36;9.17;;;5.47;;
8574;SDS011;4325;42.520;27.448;2023-09-30T02:05:03;6.53;;;5.10;;
8574;SDS011;4325;42.520;27.448;2023-09-30T02:07:33;12.73;;;5.90;;
8574;SDS011;4325;42.520;27.448;2023-09-30T02:10:00;12.03;;;6.07;;
8574;SDS011;4325;42.520;27.448;2023-09-30T02:12:27;5.83;;;4.47;;
8574;SDS011;4325;42.520;27.448;2023-09-30T02:14:55;14.13;;;5.83;;
8574;SDS011;4325;42.520;27.448;2023-09-30T02:17:24;9.13;;;5.87;;
8574;SDS011;4325;42.520;27.448;2023-09-30T02:19:51;8.87;;;5.33;;
8574;SDS011;4325;42.520;27.448;2023-09-30T02:22:20;10.93;;;5.37;;
8574;SDS011;4325;42.520;27.448;2023-09-30T02:24:48;8.53;;;5.70;;
8574;SDS011;4325;42.520;27.448;2023-09-30T02:27:16;7.87;;;5.67;;
8574;SDS011;4325;42.520;27.448;2023-09-30T02:29:42;10.27;;;5.77;;
8574;SDS011;4325;42.520;27.448;2023-09-30T02:32:11;7.23;;;6.10;;
8574;SDS011;4325;42.520;27.448;2023-09-30T02:34:39;11.77;;;5.90;;
8574;SDS011;4325;42.520;27.448;2023-09-30T02:37:08;8.80;;;5.60;;
8574;SDS011;4325;42.520;27.448;2023-09-30T02:39:35;11.33;;;6.47;;
8574;SDS011;4325;42.520;27.448;2023-09-30T02:42:03;14.07;;;6.57;;
8574;SDS011;4325;42.520;27.448;2023-09-30T02:44:30;9.53;;;6.17;;
8574;SDS011;4325;42.520;27.448;2023-09-30T02:46:57;10.73;;;5.70;;
8574;SDS011;4325;42.520;27.448;2023-09-30T02:49:25;13.73;;;7.00;;
8574;SDS011;4325;42.520;27.448;2023-09-30T02:51:52;11.83;;;6.67;;
8574;SDS011;4325;42.520;27.448;2023-09-30T02:54:19;11.10;;;6.93;;
8574;SDS011;4325;42.520;27.448;2023-09-30T02:56:46;15.63;;;7.63;;
8574;SDS011;4325;42.520;27.448;2023-09-30T02:59:13;11.73;;;6.67;;
8574;SDS011;4325;42.520;27.448;2023-09-30T03:01:41;9.57;;;6.07;;
8574;SDS011;4325;42.520;27.448;2023-09-30T03:04:08;10.17;;;6.20;;
8574;SDS011;4325;42.520;27.448;2023-09-30T03:06:39;9.37;;;6.40;;
8574;SDS011;4325;42.520;27.448;2023-09-30T03:09:07;11.23;;;6.60;;
8574;SDS011;4325;42.520;27.448;2023-09-30T03:11:34;13.77;;;6.57;;
8574;SDS011;4325;42.520;27.448;2023-09-30T03:14:01;13.93;;;6.50;;
8574;SDS011;4325;42.520;27.448;2023-09-30T03:16:29;15.77;;;7.27;;
8574;SDS011;4325;42.520;27.448;2023-09-30T03:18:57;9.10;;;6.67;;
8574;SDS011;4325;42.520;27.448;2023-09-30T03:21:24;9.10;;;6.47;;
8574;SDS011;4325;42.520;27.448;2023-09-30T03:23:52;9.57;;;6.93;;
8574;SDS011;4325;42.520;27.448;2023-09-30T03:26:19;15.63;;;6.73;;
8574;SDS011;4325;42.520;27.448;2023-09-30T03:28:46;11.20;;;6.47;;
8574;SDS011;4325;42.520;27.448;2023-09-30T03:31:19;14.27;;;5.90;;
8574;SDS011;4325;42.520;27.448;2023-09-30T03:33:46;10.67;;;6.57;;
8574;SDS011;4325;42.520;27.448;2023-09-30T03:36:13;12.60;;;6.63;;
8574;SDS011;4325;42.520;27.448;2023-09-30T03:38:40;13.67;;;7.17;;
8574;SDS011;4325;42.520;27.448;2023-09-30T03:41:09;15.47;;;6.97;;
8574;SDS011;4325;42.520;27.448;2023-09-30T03:43:38;12.73;;;6.40;;
8574;SDS011;4325;42.520;27.448;2023-09-30T03:46:06;14.30;;;8.13;;
8574;SDS011;4325;42.520;27.448;2023-09-30T03:48:33;8.87;;;6.43;;
8574;SDS011;4325;42.520;27.448;2023-09-30T03:51:07;13.03;;;7.67;;
8574;SDS011;4325;42.520;27.448;2023-09-30T03:53:38;12.80;;;8.97;;
8574;SDS011;4325;42.520;27.448;2023-09-30T03:56:05;19.87;;;8.77;;
8574;SDS011;4325;42.520;27.448;2023-09-30T03:58:34;13.17;;;7.40;;
8574;SDS011;4325;42.520;27.448;2023-09-30T04:01:03;10.17;;;6.67;;
8574;SDS011;4325;42.520;27.448;2023-09-30T04:03:31;15.43;;;6.53;;
8574;SDS011;4325;42.520;27.448;2023-09-30T04:05:58;8.90;;;6.57;;
8574;SDS011;4325;42.520;27.448;2023-09-30T04:08:25;13.90;;;7.80;;
8574;SDS011;4325;42.520;27.448;2023-09-30T04:10:52;12.80;;;6.27;;
8574;SDS011;4325;42.520;27.448;2023-09-30T04:13:19;8.63;;;5.80;;
8574;SDS011;4325;42.520;27.448;2023-09-30T04:15:48;9.57;;;6.77;;
8574;SDS011;4325;42.520;27.448;2023-09-30T04:18:15;10.77;;;6.20;;
8574;SDS011;4325;42.520;27.448;2023-09-30T04:20:45;9.03;;;5.20;;
8574;SDS011;4325;42.520;27.448;2023-09-30T04:23:12;13.23;;;6.10;;
8574;SDS011;4325;42.520;27.448;2023-09-30T04:25:40;8.87;;;5.03;;
8574;SDS011;4325;42.520;27.448;2023-09-30T04:28:08;8.60;;;5.70;;
8574;SDS011;4325;42.520;27.448;2023-09-30T04:30:35;11.17;;;5.90;;
8574;SDS011;4325;42.520;27.448;2023-09-30T04:33:04;10.17;;;5.63;;
8574;SDS011;4325;42.520;27.448;2023-09-30T04:35:32;17.80;;;5.00;;
8574;SDS011;4325;42.520;27.448;2023-09-30T04:38:00;9.53;;;4.83;;
8574;SDS011;4325;42.520;27.448;2023-09-30T04:40:29;10.90;;;5.30;;
8574;SDS011;4325;42.520;27.448;2023-09-30T04:42:58;6.93;;;4.07;;
8574;SDS011;4325;42.520;27.448;2023-09-30T04:45:25;11.83;;;5.10;;
8574;SDS011;4325;42.520;27.448;2023-09-30T04:47:52;10.03;;;5.03;;
8574;SDS011;4325;42.520;27.448;2023-09-30T04:50:22;8.00;;;4.47;;
8574;SDS011;4325;42.520;27.448;2023-09-30T04:52:50;8.50;;;4.60;;
8574;SDS011;4325;42.520;27.448;2023-09-30T04:55:17;12.23;;;5.03;;
8574;SDS011;4325;42.520;27.448;2023-09-30T04:57:44;11.93;;;4.20;;
8574;SDS011;4325;42.520;27.448;2023-09-30T05:00:13;11.33;;;4.37;;
8574;SDS011;4325;42.520;27.448;2023-09-30T05:02:42;5.03;;;3.77;;
8574;SDS011;4325;42.520;27.448;2023-09-30T05:05:10;8.90;;;5.00;;
8574;SDS011;4325;42.520;27.448;2023-09-30T05:07:38;6.93;;;5.10;;
8574;SDS011;4325;42.520;27.448;2023-09-30T05:10:05;15.33;;;6.13;;
8574;SDS011;4325;42.520;27.448;2023-09-30T05:12:36;7.17;;;5.63;;
8574;SDS011;4325;42.520;27.448;2023-09-30T05:15:03;9.67;;;5.40;;
8574;SDS011;4325;42.520;27.448;2023-09-30T05:17:31;15.40;;;5.60;;
8574;SDS011;4325;42.520;27.448;2023-09-30T05:19:58;15.77;;;5.30;;
8574;SDS011;4325;42.520;27.448;2023-09-30T05:22:25;9.50;;;4.73;;
8574;SDS011;4325;42.520;27.448;2023-09-30T05:24:53;9.37;;;4.90;;
8574;SDS011;4325;42.520;27.448;2023-09-30T05:27:21;6.97;;;4.20;;
8574;SDS011;4325;42.520;27.448;2023-09-30T05:29:48;5.23;;;4.10;;
8574;SDS011;4325;42.520;27.448;2023-09-30T05:32:15;9.10;;;4.67;;
8574;SDS011;4325;42.520;27.448;2023-09-30T05:34:43;12.30;;;4.03;;
8574;SDS011;4325;42.520;27.448;2023-09-30T05:37:10;8.93;;;4.57;;
8574;SDS011;4325;42.520;27.448;2023-09-30T05:39:38;9.20;;;5.20;;
8574;SDS011;4325;42.520;27.448;2023-09-30T05:42:06;8.53;;;5.13;;
8574;SDS011;4325;42.520;27.448;2023-09-30T05:44:33;8.50;;;4.90;;
8574;SDS011;4325;42.520;27.448;2023-09-30T05:47:00;10.77;;;4.93;;
8574;SDS011;4325;42.520;27.448;2023-09-30T05:49:27;7.33;;;4.10;;
8574;SDS011;4325;42.520;27.448;2023-09-30T05:51:54;17.30;;;4.67;;
8574;SDS011;4325;42.520;27.448;2023-09-30T05:54:21;5.83;;;4.47;;
8574;SDS011;4325;42.520;27.448;2023-09-30T05:56:48;13.97;;;4.73;;
8574;SDS011;4325;42.520;27.448;2023-09-30T05:59:17;11.97;;;5.13;;
8574;SDS011;4325;42.520;27.448;2023-09-30T06:01:44;8.50;;;4.33;;
8574;SDS011;4325;42.520;27.448;2023-09-30T06:04:11;7.93;;;4.40;;
8574;SDS011;4325;42.520;27.448;2023-09-30T06:06:38;12.37;;;5.03;;
8574;SDS011;4325;42.520;27.448;2023-09-30T06:09:07;7.13;;;4.60;;
8574;SDS011;4325;42.520;27.448;2023-09-30T06:11:34;5.50;;;4.67;;
8574;SDS011;4325;42.520;27.448;2023-09-30T06:14:02;9.63;;;4.90;;
8574;SDS011;4325;42.520;27.448;2023-09-30T06:16:32;7.20;;;5.13;;
8574;SDS011;4325;42.520;27.448;2023-09-30T06:18:59;5.17;;;4.27;;
8574;SDS011;4325;42.520;27.448;2023-09-30T06:21:27;8.17;;;4.33;;
8574;SDS011;4325;42.520;27.448;2023-09-30T06:23:54;9.27;;;4.17;;
8574;SDS011;4325;42.520;27.448;2023-09-30T06:26:22;5.53;;;4.77;;
8574;SDS011;4325;42.520;27.448;2023-09-30T06:28:50;6.90;;;4.57;;
8574;SDS011;4325;42.520;27.448;2023-09-30T06:31:19;14.30;;;4.30;;
8574;SDS011;4325;42.520;27.448;2023-09-30T06:33:47;6.33;;;4.67;;
8574;SDS011;4325;42.520;27.448;2023-09-30T06:36:15;7.33;;;3.77;;
8574;SDS011;4325;42.520;27.448;2023-09-30T06:38:42;6.13;;;4.33;;
8574;SDS011;4325;42.520;27.448;2023-09-30T06:41:15;5.93;;;4.47;;
8574;SDS011;4325;42.520;27.448;2023-09-30T06:43:43;12.90;;;4.87;;
8574;SDS011;4325;42.520;27.448;2023-09-30T06:46:10;6.47;;;4.90;;
8574;SDS011;4325;42.520;27.448;2023-09-30T06:48:38;14.97;;;5.20;;
8574;SDS011;4325;42.520;27.448;2023-09-30T06:51:07;11.70;;;3.93;;
8574;SDS011;4325;42.520;27.448;2023-09-30T06:53:39;6.67;;;3.97;;
8574;SDS011;4325;42.520;27.448;2023-09-30T06:56:06;6.00;;;4.47;;
8574;SDS011;4325;42.520;27.448;2023-09-30T06:58:33;8.10;;;4.63;;
8574;SDS011;4325;42.520;27.448;2023-09-30T07:01:00;9.17;;;4.90;;
8574;SDS011;4325;42.520;27.448;2023-09-30T07:03:27;8.83;;;4.67;;
8574;SDS011;4325;42.520;27.448;2023-09-30T07:05:55;12.53;;;4.80;;
8574;SDS011;4325;42.520;27.448;2023-09-30T07:08:27;7.37;;;4.30;;
8574;SDS011;4325;42.520;27.448;2023-09-30T07:10:55;6.73;;;3.97;;
8574;SDS011;4325;42.520;27.448;2023-09-30T07:13:22;15.17;;;5.57;;
8574;SDS011;4325;42.520;27.448;2023-09-30T07:15:49;5.40;;;4.77;;
8574;SDS011;4325;42.520;27.448;2023-09-30T07:18:16;7.50;;;5.23;;
8574;SDS011;4325;42.520;27.448;2023-09-30T07:20:43;7.70;;;4.73;;
8574;SDS011;4325;42.520;27.448;2023-09-30T07:23:10;8.33;;;5.43;;
8574;SDS011;4325;42.520;27.448;2023-09-30T07:25:39;6.67;;;4.57;;
8574;SDS011;4325;42.520;27.448;2023-09-30T07:28:07;7.50;;;4.50;;
8574;SDS011;4325;42.520;27.448;2023-09-30T07:30:37;8.77;;;4.63;;
8574;SDS011;4325;42.520;27.448;2023-09-30T07:33:05;9.20;;;5.50;;
8574;SDS011;4325;42.520;27.448;2023-09-30T07:35:32;6.47;;;4.67;;
8574;SDS011;4325;42.520;27.448;2023-09-30T07:38:00;18.40;;;4.83;;
8574;SDS011;4325;42.520;27.448;2023-09-30T07:40:27;8.70;;;4.97;;
8574;SDS011;4325;42.520;27.448;2023-09-30T07:42:56;8.67;;;4.57;;
8574;SDS011;4325;42.520;27.448;2023-09-30T07:45:23;8.87;;;5.43;;
8574;SDS011;4325;42.520;27.448;2023-09-30T07:47:49;9.23;;;5.00;;
8574;SDS011;4325;42.520;27.448;2023-09-30T07:50:17;13.47;;;5.17;;
8574;SDS011;4325;42.520;27.448;2023-09-30T07:52:44;7.83;;;4.37;;
8574;SDS011;4325;42.520;27.448;2023-09-30T07:55:11;4.73;;;4.00;;
8574;SDS011;4325;42.520;27.448;2023-09-30T07:57:40;13.27;;;5.70;;
8574;SDS011;4325;42.520;27.448;2023-09-30T08:00:10;8.30;;;4.67;;
8574;SDS011;4325;42.520;27.448;2023-09-30T08:02:40;8.93;;;5.00;;
8574;SDS011;4325;42.520;27.448;2023-09-30T08:05:08;7.43;;;4.77;;
8574;SDS011;4325;42.520;27.448;2023-09-30T08:07:37;13.97;;;4.10;;
8574;SDS011;4325;42.520;27.448;2023-09-30T08:10:04;9.70;;;4.30;;
8574;SDS011;4325;42.520;27.448;2023-09-30T08:12:37;8.32;;;5.53;;
8574;SDS011;4325;42.520;27.448;2023-09-30T08:15:04;8.63;;;4.38;;
8574;SDS011;4325;42.520;27.448;2023-09-30T08:17:34;5.88;;;3.72;;
8574;SDS011;4325;42.520;27.448;2023-09-30T08:20:01;7.80;;;4.78;;
8574;SDS011;4325;42.520;27.448;2023-09-30T08:22:29;7.28;;;4.38;;
8574;SDS011;4325;42.520;27.448;2023-09-30T08:24:56;6.70;;;4.07;;
8574;SDS011;4325;42.520;27.448;2023-09-30T08:27:24;6.20;;;4.18;;
8574;SDS011;4325;42.520;27.448;2023-09-30T08:29:52;6.25;;;3.50;;
8574;SDS011;4325;42.520;27.448;2023-09-30T08:32:19;5.78;;;3.80;;
8574;SDS011;4325;42.520;27.448;2023-09-30T08:34:47;5.88;;;3.38;;
8574;SDS011;4325;42.520;27.448;2023-09-30T08:37:14;6.20;;;3.65;;
8574;SDS011;4325;42.520;27.448;2023-09-30T08:39:42;10.07;;;3.53;;
8574;SDS011;4325;42.520;27.448;2023-09-30T08:42:09;10.02;;;3.80;;
8574;SDS011;4325;42.520;27.448;2023-09-30T08:44:37;6.90;;;3.80;;
8574;SDS011;4325;42.520;27.448;2023-09-30T08:47:05;8.68;;;4.07;;
8574;SDS011;4325;42.520;27.448;2023-09-30T08:49:34;13.00;;;4.40;;
8574;SDS011;4325;42.520;27.448;2023-09-30T08:52:06;5.43;;;3.72;;
8574;SDS011;4325;42.520;27.448;2023-09-30T08:54:35;7.90;;;4.25;;
8574;SDS011;4325;42.520;27.448;2023-09-30T08:57:02;9.63;;;4.15;;
8574;SDS011;4325;42.520;27.448;2023-09-30T08:59:30;4.60;;;3.60;;
8574;SDS011;4325;42.520;27.448;2023-09-30T09:02:01;6.03;;;3.85;;
8574;SDS011;4325;42.520;27.448;2023-09-30T09:04:28;4.72;;;4.25;;
8574;SDS011;4325;42.520;27.448;2023-09-30T09:06:56;5.13;;;4.22;;
8574;SDS011;4325;42.520;27.448;2023-09-30T09:09:24;10.90;;;4.10;;
8574;SDS011;4325;42.520;27.448;2023-09-30T09:11:51;6.82;;;4.82;;
8574;SDS011;4325;42.520;27.448;2023-09-30T09:14:18;10.52;;;4.95;;
8574;SDS011;4325;42.520;27.448;2023-09-30T09:16:52;8.23;;;4.70;;
8574;SDS011;4325;42.520;27.448;2023-09-30T09:19:20;8.65;;;3.97;;
8574;SDS011;4325;42.520;27.448;2023-09-30T09:21:53;12.82;;;3.97;;
8574;SDS011;4325;42.520;27.448;2023-09-30T09:24:30;12.57;;;3.67;;
8574;SDS011;4325;42.520;27.448;2023-09-30T09:27:04;13.32;;;4.00;;
8574;SDS011;4325;42.520;27.448;2023-09-30T09:29:32;6.50;;;3.92;;
8574;SDS011;4325;42.520;27.448;2023-09-30T09:32:06;6.15;;;3.90;;
8574;SDS011;4325;42.520;27.448;2023-09-30T09:34:34;9.20;;;3.90;;
8574;SDS011;4325;42.520;27.448;2023-09-30T09:37:12;16.08;;;4.13;;
8574;SDS011;4325;42.520;27.448;2023-09-30T09:39:42;8.27;;;4.40;;
8574;SDS011;4325;42.520;27.448;2023-09-30T09:42:23;7.30;;;4.47;;
8574;SDS011;4325;42.520;27.448;2023-09-30T09:44:51;4.47;;;4.03;;
8574;SDS011;4325;42.520;27.448;2023-09-30T09:47:21;4.05;;;3.65;;
8574;SDS011;4325;42.520;27.448;2023-09-30T09:49:49;4.88;;;4.00;;
8574;SDS011;4325;42.520;27.448;2023-09-30T09:52:17;13.98;;;4.07;;
8574;SDS011;4325;42.520;27.448;2023-09-30T09:54:46;7.18;;;4.07;;
8574;SDS011;4325;42.520;27.448;2023-09-30T09:57:15;7.65;;;4.03;;
8574;SDS011;4325;42.520;27.448;2023-09-30T09:59:44;19.15;;;3.88;;
8574;SDS011;4325;42.520;27.448;2023-09-30T10:02:13;4.68;;;4.13;;
8574;SDS011;4325;42.520;27.448;2023-09-30T10:04:42;10.27;;;4.35;;
8574;SDS011;4325;42.520;27.448;2023-09-30T10:07:10;11.05;;;4.55;;
8574;SDS011;4325;42.520;27.448;2023-09-30T10:09:41;9.90;;;4.25;;
8574;SDS011;4325;42.520;27.448;2023-09-30T10:12:14;8.45;;;3.97;;
8574;SDS011;4325;42.520;27.448;2023-09-30T10:14:42;8.50;;;3.97;;
8574;SDS011;4325;42.520;27.448;2023-09-30T10:17:09;10.00;;;4.15;;
8574;SDS011;4325;42.520;27.448;2023-09-30T10:19:36;4.70;;;3.63;;
8574;SDS011;4325;42.520;27.448;2023-09-30T10:22:31;6.88;;;4.22;;
8574;SDS011;4325;42.520;27.448;2023-09-30T10:24:59;7.00;;;4.07;;
8574;SDS011;4325;42.520;27.448;2023-09-30T10:27:31;7.22;;;4.32;;
8574;SDS011;4325;42.520;27.448;2023-09-30T10:30:05;11.80;;;4.07;;
8574;SDS011;4325;42.520;27.448;2023-09-30T10:35:44;15.38;;;4.45;;
8574;SDS011;4325;42.520;27.448;2023-09-30T10:41:06;5.70;;;3.70;;
8574;SDS011;4325;42.520;27.448;2023-09-30T10:43:42;11.40;;;4.05;;
8574;SDS011;4325;42.520;27.448;2023-09-30T10:48:57;5.50;;;3.78;;
8574;SDS011;4325;42.520;27.448;2023-09-30T10:51:42;12.10;;;4.03;;
8574;SDS011;4325;42.520;27.448;2023-09-30T10:54:09;11.18;;;4.70;;
8574;SDS011;4325;42.520;27.448;2023-09-30T10:56:39;11.55;;;3.83;;
8574;SDS011;4325;42.520;27.448;2023-09-30T10:59:07;10.63;;;4.30;;
8574;SDS011;4325;42.520;27.448;2023-09-30T11:01:34;10.60;;;3.70;;
8574;SDS011;4325;42.520;27.448;2023-09-30T11:04:02;6.75;;;4.18;;
8574;SDS011;4325;42.520;27.448;2023-09-30T11:06:31;5.22;;;3.92;;
8574;SDS011;4325;42.520;27.448;2023-09-30T11:08:59;5.65;;;3.58;;
8574;SDS011;4325;42.520;27.448;2023-09-30T11:11:34;7.20;;;3.78;;
8574;SDS011;4325;42.520;27.448;2023-09-30T11:14:19;14.77;;;4.55;;
8574;SDS011;4325;42.520;27.448;2023-09-30T11:16:47;5.32;;;4.15;;
8574;SDS011;4325;42.520;27.448;2023-09-30T11:19:15;6.05;;;4.13;;
8574;SDS011;4325;42.520;27.448;2023-09-30T11:21:43;9.57;;;3.90;;
8574;SDS011;4325;42.520;27.448;2023-09-30T11:24:10;11.10;;;3.60;;
8574;SDS011;4325;42.520;27.448;2023-09-30T11:26:38;15.05;;;4.90;;
8574;SDS011;4325;42.520;27.448;2023-09-30T11:29:07;8.30;;;4.30;;
8574;SDS011;4325;42.520;27.448;2023-09-30T11:31:38;4.78;;;3.80;;
8574;SDS011;4325;42.520;27.448;2023-09-30T11:34:05;12.35;;;4.88;;
8574;SDS011;4325;42.520;27.448;2023-09-30T11:36:34;16.55;;;4.45;;
8574;SDS011;4325;42.520;27.448;2023-09-30T11:39:02;15.65;;;4.40;;
8574;SDS011;4325;42.520;27.448;2023-09-30T11:41:32;9.50;;;4.40;;
8574;SDS011;4325;42.520;27.448;2023-09-30T11:44:03;5.13;;;4.28;;
8574;SDS011;4325;42.520;27.448;2023-09-30T11:46:33;5.07;;;3.92;;
8574;SDS011;4325;42.520;27.448;2023-09-30T11:49:24;7.68;;;4.50;;
8574;SDS011;4325;42.520;27.448;2023-09-30T11:51:53;8.85;;;5.05;;
8574;SDS011;4325;42.520;27.448;2023-09-30T11:54:20;5.60;;;4.18;;
8574;SDS011;4325;42.520;27.448;2023-09-30T11:56:48;7.13;;;4.88;;
8574;SDS011;4325;42.520;27.448;2023-09-30T11:59:16;5.78;;;4.85;;
8574;SDS011;4325;42.520;27.448;2023-09-30T12:01:45;8.75;;;5.65;;
8574;SDS011;4325;42.520;27.448;2023-09-30T12:04:15;7.72;;;4.72;;
8574;SDS011;4325;42.520;27.448;2023-09-30T12:06:44;12.98;;;4.57;;
8574;SDS011;4325;42.520;27.448;2023-09-30T12:09:11;8.30;;;4.57;;
8574;SDS011;4325;42.520;27.448;2023-09-30T12:11:40;10.25;;;5.00;;
8574;SDS011;4325;42.520;27.448;2023-09-30T12:14:09;9.50;;;5.40;;
8574;SDS011;4325;42.520;27.448;2023-09-30T12:16:37;11.80;;;5.75;;
8574;SDS011;4325;42.520;27.448;2023-09-30T12:19:04;9.77;;;4.88;;
8574;SDS011;4325;42.520;27.448;2023-09-30T12:21:33;10.52;;;4.95;;
8574;SDS011;4325;42.520;27.448;2023-09-30T12:24:02;6.53;;;5.45;;
8574;SDS011;4325;42.520;27.448;2023-09-30T12:26:29;7.43;;;5.20;;
8574;SDS011;4325;42.520;27.448;2023-09-30T12:28:56;11.77;;;5.15;;
8574;SDS011;4325;42.520;27.448;2023-09-30T12:31:23;11.80;;;5.07;;
8574;SDS011;4325;42.520;27.448;2023-09-30T12:33:50;10.95;;;5.47;;
8574;SDS011;4325;42.520;27.448;2023-09-30T12:36:19;7.70;;;4.85;;
8574;SDS011;4325;42.520;27.448;2023-09-30T12:38:48;6.55;;;4.90;;
8574;SDS011;4325;42.520;27.448;2023-09-30T12:41:15;15.82;;;5.65;;
8574;SDS011;4325;42.520;27.448;2023-09-30T12:43:44;9.98;;;5.82;;
8574;SDS011;4325;42.520;27.448;2023-09-30T12:46:11;11.18;;;5.97;;
8574;SDS011;4325;42.520;27.448;2023-09-30T12:48:39;12.23;;;6.55;;
8574;SDS011;4325;42.520;27.448;2023-09-30T12:51:06;9.00;;;5.67;;
8574;SDS011;4325;42.520;27.448;2023-09-30T12:53:35;10.87;;;6.70;;
8574;SDS011;4325;42.520;27.448;2023-09-30T12:56:03;16.73;;;7.07;;
8574;SDS011;4325;42.520;27.448;2023-09-30T12:58:31;7.83;;;6.30;;
8574;SDS011;4325;42.520;27.448;2023-09-30T13:00:58;11.87;;;6.50;;
8574;SDS011;4325;42.520;27.448;2023-09-30T13:03:25;14.33;;;7.47;;
8574;SDS011;4325;42.520;27.448;2023-09-30T13:05:53;11.03;;;7.20;;
8574;SDS011;4325;42.520;27.448;2023-09-30T13:08:20;11.70;;;6.70;;
8574;SDS011;4325;42.520;27.448;2023-09-30T13:10:47;18.40;;;7.87;;
8574;SDS011;4325;42.520;27.448;2023-09-30T13:13:17;13.63;;;7.17;;
8574;SDS011;4325;42.520;27.448;2023-09-30T13:15:44;25.20;;;8.20;;
8574;SDS011;4325;42.520;27.448;2023-09-30T13:18:11;11.40;;;7.47;;
8574;SDS011;4325;42.520;27.448;2023-09-30T13:20:38;20.80;;;7.30;;
8574;SDS011;4325;42.520;27.448;2023-09-30T13:23:05;12.23;;;7.83;;
8574;SDS011;4325;42.520;27.448;2023-09-30T13:25:32;12.77;;;8.47;;
8574;SDS011;4325;42.520;27.448;2023-09-30T13:27:59;15.33;;;8.60;;
8574;SDS011;4325;42.520;27.448;2023-09-30T13:30:28;12.60;;;8.30;;
8574;SDS011;4325;42.520;27.448;2023-09-30T13:32:55;11.20;;;8.23;;
8574;SDS011;4325;42.520;27.448;2023-09-30T13:35:22;13.03;;;8.47;;
8574;SDS011;4325;42.520;27.448;2023-09-30T13:37:50;18.60;;;8.93;;
8574;SDS011;4325;42.520;27.448;2023-09-30T13:40:17;15.83;;;9.50;;
8574;SDS011;4325;42.520;27.448;2023-09-30T13:42:44;10.83;;;8.40;;
8574;SDS011;4325;42.520;27.448;2023-09-30T13:45:12;16.20;;;9.50;;
8574;SDS011;4325;42.520;27.448;2023-09-30T13:47:43;11.37;;;8.70;;
8574;SDS011;4325;42.520;27.448;2023-09-30T13:50:10;11.30;;;8.83;;
8574;SDS011;4325;42.520;27.448;2023-09-30T13:52:37;13.33;;;8.10;;
8574;SDS011;4325;42.520;27.448;2023-09-30T13:55:04;17.90;;;9.50;;
8574;SDS011;4325;42.520;27.448;2023-09-30T13:57:32;14.47;;;9.17;;
8574;SDS011;4325;42.520;27.448;2023-09-30T14:00:00;12.80;;;8.77;;
8574;SDS011;4325;42.520;27.448;2023-09-30T14:02:28;18.47;;;9.27;;
8574;SDS011;4325;42.520;27.448;2023-09-30T14:04:56;19.00;;;9.40;;
8574;SDS011;4325;42.520;27.448;2023-09-30T14:07:23;14.30;;;8.90;;
8574;SDS011;4325;42.520;27.448;2023-09-30T14:09:51;15.77;;;7.97;;
8574;SDS011;4325;42.520;27.448;2023-09-30T14:12:19;17.27;;;9.80;;
8574;SDS011;4325;42.520;27.448;2023-09-30T14:14:45;20.13;;;9.30;;
8574;SDS011;4325;42.520;27.448;2023-09-30T14:17:13;12.67;;;8.07;;
8574;SDS011;4325;42.520;27.448;2023-09-30T14:19:40;19.77;;;9.07;;
8574;SDS011;4325;42.520;27.448;2023-09-30T14:22:08;12.47;;;8.27;;
8574;SDS011;4325;42.520;27.448;2023-09-30T14:24:37;10.97;;;8.60;;
8574;SDS011;4325;42.520;27.448;2023-09-30T14:27:04;22.00;;;9.73;;
8574;SDS011;4325;42.520;27.448;2023-09-30T14:29:32;24.50;;;8.70;;
8574;SDS011;4325;42.520;27.448;2023-09-30T14:31:59;11.47;;;8.40;;
8574;SDS011;4325;42.520;27.448;2023-09-30T14:34:27;17.10;;;8.97;;
8574;SDS011;4325;42.520;27.448;2023-09-30T14:36:54;10.80;;;9.00;;
8574;SDS011;4325;42.520;27.448;2023-09-30T14:39:22;14.20;;;8.77;;
8574;SDS011;4325;42.520;27.448;2023-09-30T14:41:49;19.67;;;8.93;;
8574;SDS011;4325;42.520;27.448;2023-09-30T14:44:16;18.13;;;8.67;;
8574;SDS011;4325;42.520;27.448;2023-09-30T14:46:46;19.90;;;9.33;;
8574;SDS011;4325;42.520;27.448;2023-09-30T14:49:13;13.17;;;8.43;;
8574;SDS011;4325;42.520;27.448;2023-09-30T14:51:40;11.97;;;8.13;;
8574;SDS011;4325;42.520;27.448;2023-09-30T14:54:07;12.83;;;8.17;;
8574;SDS011;4325;42.520;27.448;2023-09-30T14:56:36;13.73;;;8.67;;
8574;SDS011;4325;42.520;27.448;2023-09-30T14:59:03;15.40;;;10.20;;
8574;SDS011;4325;42.520;27.448;2023-09-30T15:01:30;33.87;;;9.13;;
8574;SDS011;4325;42.520;27.448;2023-09-30T15:03:58;11.00;;;8.23;;
8574;SDS011;4325;42.520;27.448;2023-09-30T15:06:25;14.67;;;8.80;;
8574;SDS011;4325;42.520;27.448;2023-09-30T15:08:53;15.63;;;9.70;;
8574;SDS011;4325;42.520;27.448;2023-09-30T15:11:21;14.80;;;9.33;;